Terminal Aerodrome Forecast
Issued by NWS Sterling, VA

Home | Current Version | Previous Version | Text Only | Print | Product List | Glossary On
Versions: 1 2 3 4 5 6 7 8 9 10 11 12 13 14 15 16 17 18 19 20 21 22 23 24 25 26 27 28 29 30 31 32
000
FTUS41 KLWX 221100
TAFIAD
TAF
KIAD 221137Z 2212/2318 33010KT 6SM -SHRA SCT008 BKN015 OVC030
     FM221300 35016G24KT 6SM -SHRA SCT008 OVC015
     FM221800 34018G27KT P6SM OVC020
     FM230000 34017G26KT P6SM BKN040
     FM230800 32016KT P6SM BKN030
     FM231300 31019G28KT P6SM BKN030=

USA.gov is the U.S. government's official web portal to all federal, state and local government web resources and services.